Time;durP1;ratioP1;P1;durP2;ratioP2;P2;SDS_P1;SDS_P2;PMS_P1;PMS_P2;Temp;Humidity;BMP_temperature;BMP_pressure;BME280_temperature;BME280_humidity;BME280_pressure;Samples;Min_cycle;Max_cycle;Signal;HPM_P1;HPM_P2
2022/08/14 00:02:23;;;;;;;12.35;7.88;;;;;;;21.01;70.88;99581.44;5154842;27;20070;-72
2022/08/14 00:04:54;;;;;;;14.20;7.88;;;;;;;20.96;70.82;99581.13;5155538;27;20054;-75
2022/08/14 00:07:22;;;;;;;11.77;8.20;;;;;;;21.00;70.99;99571.59;5154908;27;20053;-75
2022/08/14 00:09:52;;;;;;;13.70;8.20;;;;;;;21.11;70.55;99568.50;5155135;27;20424;-77
2022/08/14 00:12:43;;;;;;;10.48;8.13;;;;;;;21.17;70.58;99571.56;5155311;27;20118;-78
2022/08/14 00:15:27;;;;;;;13.70;7.68;;;;;;;21.24;70.09;99570.66;5153600;27;20555;-76
2022/08/14 00:18:05;;;;;;;12.23;8.38;;;;;;;21.22;71.68;99569.97;5155138;27;20126;-77
2022/08/14 00:20:36;;;;;;;10.25;7.35;;;;;;;21.07;72.06;99567.19;5155098;27;20066;-78
2022/08/14 00:23:12;;;;;;;10.43;8.32;;;;;;;21.05;72.15;99569.22;5155115;27;20121;-77
2022/08/14 00:25:49;;;;;;;12.50;8.88;;;;;;;21.15;72.46;99566.31;5155604;27;20070;-75
2022/08/14 00:28:34;;;;;;;13.82;9.55;;;;;;;21.24;71.59;99562.53;5154900;27;20035;-76
2022/08/14 00:31:05;;;;;;;11.90;9.38;;;;;;;21.18;72.31;99565.94;5154899;27;20034;-71
2022/08/14 00:33:35;;;;;;;12.35;9.07;;;;;;;21.06;72.79;99560.06;5154678;27;20054;-76
2022/08/14 00:36:20;;;;;;;13.43;9.00;;;;;;;20.99;73.22;99558.25;5154536;27;20147;-74
2022/08/14 00:39:11;;;;;;;15.65;9.57;;;;;;;20.93;72.68;99554.34;5154820;27;20458;-76
2022/08/14 00:41:42;;;;;;;11.90;8.57;;;;;;;20.90;72.60;99554.72;5154283;27;20425;-74
2022/08/14 00:44:10;;;;;;;11.40;8.18;;;;;;;20.87;72.67;99557.78;5154504;27;20066;-74
2022/08/14 00:46:39;;;;;;;13.25;8.35;;;;;;;20.74;73.82;99555.59;5154359;27;20061;-72
2022/08/14 00:49:08;;;;;;;11.88;7.95;;;;;;;20.72;73.78;99551.38;5154520;27;20042;-74
2022/08/14 00:51:42;;;;;;;13.10;8.50;;;;;;;20.63;74.83;99549.72;5154107;27;20054;-74
2022/08/14 00:54:12;;;;;;;12.20;8.10;;;;;;;20.61;75.40;99549.91;5154413;27;20431;-75
2022/08/14 00:56:51;;;;;;;12.73;8.00;;;;;;;20.64;75.06;99548.69;5154271;27;20045;-74
2022/08/14 00:59:24;;;;;;;11.82;8.20;;;;;;;20.68;75.13;99552.75;5153998;27;20074;-75
2022/08/14 01:01:55;;;;;;;13.05;7.95;;;;;;;20.56;75.92;99553.13;5154180;27;20590;-74
2022/08/14 01:04:27;;;;;;;13.43;8.27;;;;;;;20.60;76.24;99550.06;5153361;27;20084;-76
2022/08/14 01:07:19;;;;;;;11.52;7.60;;;;;;;20.43;77.51;99552.81;5154383;27;20111;-78
2022/08/14 01:09:49;;;;;;;12.80;8.90;;;;;;;20.22;80.67;99541.66;5153189;27;20087;-79
2022/08/14 01:12:20;;;;;;;11.15;8.43;;;;;;;20.16;82.29;99550.44;5153641;27;20042;-77
2022/08/14 01:14:56;;;;;;;10.13;8.20;;;;;;;20.13;82.59;99545.38;5154261;27;20450;-79
2022/08/14 01:21:02;;;;;;;12.23;8.90;;;;;;;19.95;84.06;99548.25;5153763;27;20402;-73
2022/08/14 01:23:10;;;;;;;13.43;9.15;;;;;;;19.83;85.89;99553.16;5153570;27;20042;-77
2022/08/14 01:25:46;;;;;;;11.32;8.45;;;;;;;19.77;87.11;99551.13;5153740;27;20130;-76
2022/08/14 01:28:15;;;;;;;15.07;8.20;;;;;;;19.87;86.24;99557.22;5152564;27;20080;-76
2022/08/14 01:31:05;;;;;;;11.02;7.85;;;;;;;19.78;87.81;99552.81;5153912;27;20399;-75
2022/08/14 01:33:34;;;;;;;13.45;8.48;;;;;;;19.75;88.59;99558.56;5153520;27;20468;-76
2022/08/14 01:36:24;;;;;;;11.80;8.52;;;;;;;19.55;91.83;99563.41;5153548;27;20045;-76
2022/08/14 01:38:56;;;;;;;13.07;7.95;;;;;;;19.68;91.55;99562.94;5153787;27;20112;-75
2022/08/14 01:41:27;;;;;;;12.60;7.90;;;;;;;19.67;91.64;99561.25;5153544;27;20405;-76
2022/08/14 01:44:00;;;;;;;14.35;8.43;;;;;;;19.69;91.21;99564.66;5153652;27;20475;-76
2022/08/14 01:46:31;;;;;;;10.80;8.38;;;;;;;19.75;90.61;99569.41;5153458;27;20077;-75
2022/08/14 01:49:07;;;;;;;10.57;8.07;;;;;;;19.85;87.85;99564.66;5153637;27;20087;-75
2022/08/14 01:51:38;;;;;;;10.90;8.40;;;;;;;19.84;87.65;99568.38;5153312;27;20038;-75
2022/08/14 01:54:13;;;;;;;11.95;8.70;;;;;;;19.88;87.36;99566.19;5153952;27;20065;-76
2022/08/14 01:56:43;;;;;;;12.02;8.57;;;;;;;19.86;87.73;99566.34;5153644;27;20145;-76
2022/08/14 01:59:20;;;;;;;10.82;8.05;;;;;;;19.87;87.44;99562.63;5153698;27;20042;-77
2022/08/14 02:01:50;;;;;;;12.43;8.48;;;;;;;19.85;84.70;99564.66;5154100;27;20062;-76
2022/08/14 02:04:29;;;;;;;15.15;8.68;;;;;;;19.83;84.72;99561.28;5153609;27;20099;-76
2022/08/14 02:07:19;;;;;;;11.48;8.75;;;;;;;19.90;84.46;99558.75;5153892;27;20042;-76
2022/08/14 02:10:10;;;;;;;12.32;8.48;;;;;;;19.78;85.93;99552.81;5153746;27;20039;-78
2022/08/14 02:12:42;;;;;;;14.45;9.00;;;;;;;19.64;86.65;99561.59;5153149;27;20115;-78
2022/08/14 02:15:11;;;;;;;11.00;8.98;;;;;;;19.76;85.98;99562.13;5152315;27;20043;-75
2022/08/14 02:17:42;;;;;;;13.35;8.50;;;;;;;19.82;86.13;99564.16;5153174;27;20050;-78
2022/08/14 02:20:12;;;;;;;10.65;8.63;;;;;;;19.76;86.13;99560.25;5153527;27;20088;-77
2022/08/14 02:22:41;;;;;;;13.55;8.60;;;;;;;19.81;85.94;99557.91;5153269;27;20046;-78
2022/08/14 02:25:16;;;;;;;14.95;8.73;;;;;;;19.85;85.53;99564.66;5157536;27;20564;-76
2022/08/14 02:27:44;;;;;;;10.88;8.55;;;;;;;19.79;86.00;99556.41;5156967;27;20043;-77
2022/08/14 02:30:33;;;;;;;13.05;8.88;;;;;;;19.84;85.42;99556.72;5155676;27;20103;-76
2022/08/14 02:33:06;;;;;;;13.05;8.70;;;;;;;19.64;87.58;99554.34;5157231;27;20047;-77
2022/08/14 02:35:40;;;;;;;15.27;9.10;;;;;;;19.55;89.00;99557.16;5157005;27;20038;-76
2022/08/14 02:38:10;;;;;;;12.15;8.32;;;;;;;19.54;89.15;99559.03;5157295;27;20054;-76
2022/08/14 02:40:59;;;;;;;13.50;8.50;;;;;;;19.61;88.57;99556.53;5157192;27;20043;-78
2022/08/14 02:43:29;;;;;;;11.30;9.13;;;;;;;19.58;89.18;99557.69;5156889;27;20054;-77
2022/08/14 02:46:16;;;;;;;11.43;8.38;;;;;;;19.56;90.00;99561.59;5157076;27;20141;-72
2022/08/14 02:48:54;;;;;;;12.00;8.70;;;;;;;19.36;92.07;99569.97;5156913;27;20543;-72
2022/08/14 02:51:33;;;;;;;10.52;8.55;;;;;;;19.24;94.28;99562.34;5156631;27;20542;-72
2022/08/14 02:54:04;;;;;;;14.50;9.02;;;;;;;19.24;94.98;99565.03;5156771;27;20043;-71
2022/08/14 02:56:37;;;;;;;11.30;8.85;;;;;;;19.18;96.46;99566.53;5155993;27;20486;-71
2022/08/14 02:59:28;;;;;;;13.02;8.55;;;;;;;19.28;95.35;99559.13;5156295;27;20042;-72
2022/08/14 03:02:01;;;;;;;12.82;9.15;;;;;;;19.52;92.83;99561.06;5156479;27;20054;-71
2022/08/14 03:04:30;;;;;;;11.70;9.32;;;;;;;19.54;92.48;99559.03;5156166;27;20080;-71
2022/08/14 03:06:59;;;;;;;11.13;8.95;;;;;;;19.38;94.42;99564.38;5156277;27;20399;-71
2022/08/14 03:09:36;;;;;;;12.90;9.15;;;;;;;19.25;96.37;99567.56;5156224;27;20535;-71
2022/08/14 03:12:26;;;;;;;11.88;8.93;;;;;;;19.27;95.97;99562.00;5156409;27;20053;-71
2022/08/14 03:15:02;;;;;;;12.20;8.88;;;;;;;19.22;96.98;99570.63;5156511;27;20042;-72
2022/08/14 03:17:33;;;;;;;12.65;8.93;;;;;;;19.21;96.60;99571.63;5155882;27;20046;-74
2022/08/14 03:20:22;;;;;;;13.57;9.10;;;;;;;19.34;95.42;99572.00;5156218;27;20043;-72
2022/08/14 03:22:51;;;;;;;15.07;8.93;;;;;;;19.23;96.51;99579.56;5155762;27;20039;-70
2022/08/14 03:25:20;;;;;;;12.65;9.10;;;;;;;19.43;94.98;99581.81;5156135;27;20506;-70
2022/08/14 03:27:51;;;;;;;14.07;9.23;;;;;;;19.40;95.07;99576.75;5155722;27;20440;-70
2022/08/14 03:30:27;;;;;;;12.45;9.15;;;;;;;19.24;96.40;99576.69;5156213;27;20042;-72
2022/08/14 03:33:09;;;;;;;12.80;9.32;;;;;;;19.13;98.18;99575.16;5156284;27;20054;-72
2022/08/14 03:35:40;;;;;;;13.15;8.98;;;;;;;19.23;96.90;99569.59;5154630;27;20457;-72
2022/08/14 03:38:29;;;;;;;12.77;8.98;;;;;;;19.15;97.80;99566.88;5155693;27;20035;-74
2022/08/14 03:41:19;;;;;;;13.40;9.40;;;;;;;19.07;99.90;99564.13;5155589;27;20039;-74
2022/08/14 03:43:55;;;;;;;12.52;9.30;;;;;;;19.07;99.90;99569.53;5155387;27;20502;-74
2022/08/14 03:46:43;;;;;;;10.95;8.68;;;;;;;19.08;100.00;99571.22;5155348;27;20046;-73
2022/08/14 03:49:23;;;;;;;12.38;8.88;;;;;;;19.12;100.00;99570.75;5155858;27;20471;-74
2022/08/14 03:51:57;;;;;;;12.98;9.18;;;;;;;19.25;98.92;99577.53;5154471;27;20058;-72
2022/08/14 03:54:28;;;;;;;14.90;9.18;;;;;;;19.42;96.17;99573.88;5155545;27;20130;-73
2022/08/14 03:56:59;;;;;;;13.82;9.68;;;;;;;19.43;94.87;99565.59;5155397;27;20066;-73
2022/08/14 03:59:31;;;;;;;12.05;8.82;;;;;;;19.40;95.70;99576.75;5155134;27;20045;-76
2022/08/14 04:01:59;;;;;;;15.07;9.30;;;;;;;19.48;94.83;99577.75;5153960;27;20042;-74
2022/08/14 04:04:31;;;;;;;12.27;8.82;;;;;;;19.49;94.90;99580.28;5155282;27;20047;-75
2022/08/14 04:07:00;;;;;;;13.32;9.68;;;;;;;19.51;94.53;99577.47;5155338;27;20459;-74
2022/08/14 04:09:29;;;;;;;14.80;9.20;;;;;;;19.56;93.95;99580.53;5154962;27;20091;-75
2022/08/14 04:11:58;;;;;;;10.93;8.88;;;;;;;19.71;92.06;99579.72;5155014;27;20411;-75
2022/08/14 04:14:29;;;;;;;10.98;8.50;;;;;;;19.86;90.65;99577.19;5154914;27;20061;-75
2022/08/14 04:17:05;;;;;;;14.02;9.20;;;;;;;19.70;90.98;99575.31;5155157;27;20039;-73
2022/08/14 04:19:39;;;;;;;15.18;8.88;;;;;;;19.83;90.43;99585.66;5154822;27;20035;-74
2022/08/14 04:22:08;;;;;;;10.65;8.50;;;;;;;20.07;88.35;99579.38;5155133;27;20445;-74
2022/08/14 04:24:38;;;;;;;13.23;9.38;;;;;;;20.19;86.92;99577.19;5154616;27;20067;-74
2022/08/14 04:27:08;;;;;;;11.32;8.82;;;;;;;20.32;86.03;99572.09;5153221;27;20046;-73
2022/08/14 04:29:38;;;;;;;10.10;8.25;;;;;;;20.60;83.17;99583.44;5153047;27;20487;-75
2022/08/14 04:32:09;;;;;;;13.10;9.57;;;;;;;20.50;83.95;99586.31;5154725;27;20095;-74
2022/08/14 04:34:57;;;;;;;12.85;8.45;;;;;;;20.66;82.81;99582.75;5154787;27;20125;-75
2022/08/14 04:45:48;;;;;;;12.15;8.23;;;;;;;20.74;81.69;99585.41;5154196;27;20070;-73
2022/08/14 04:48:19;;;;;;;11.80;8.57;;;;;;;20.76;81.75;99590.69;5154629;27;20053;-74
2022/08/14 04:51:10;;;;;;;12.20;8.40;;;;;;;21.00;80.18;99593.31;5154713;27;20038;-74
2022/08/14 04:53:42;;;;;;;11.35;8.05;;;;;;;21.26;76.29;99590.34;5154162;27;20039;-73
2022/08/14 04:56:13;;;;;;;11.30;7.97;;;;;;;21.29;76.05;99594.56;5154086;27;20088;-74
2022/08/14 04:59:03;;;;;;;11.90;8.30;;;;;;;21.08;77.69;99597.84;5154264;27;20039;-74
2022/08/14 05:01:40;;;;;;;9.95;8.02;;;;;;;21.09;78.19;99592.25;5153956;27;20122;-77
2022/08/14 05:04:17;;;;;;;12.10;7.78;;;;;;;21.08;78.32;99593.28;5154087;27;20050;-76
2022/08/14 05:06:47;;;;;;;;;;;;;;;21.09;77.54;99592.25;5154454;27;20410;-77
2022/08/14 05:09:16;;;;;;;11.52;8.23;;;;;;;21.23;77.32;99600.66;5154394;27;19919;-74
2022/08/14 05:11:46;;;;;;;9.45;7.47;;;;;;;21.40;76.35;99596.88;5153993;27;20117;-74
2022/08/14 05:14:14;;;;;;;10.63;7.32;;;;;;;21.51;75.73;99598.34;5154139;27;20046;-75
2022/08/14 05:17:02;;;;;;;10.20;7.13;;;;;;;21.86;73.49;99596.94;5153925;27;20050;-74
2022/08/14 05:19:31;;;;;;;11.60;7.68;;;;;;;22.14;70.73;99600.84;5154130;27;20148;-75
2022/08/14 05:22:01;;;;;;;9.55;7.15;;;;;;;21.99;71.56;99594.47;5154482;27;20443;-73
2022/08/14 05:24:46;;;;;;;10.43;7.13;;;;;;;21.95;72.49;99593.16;5153826;27;20045;-75
2022/08/14 05:27:19;;;;;;;9.10;7.03;;;;;;;22.02;71.75;99594.13;5152606;27;20091;-74
2022/08/14 05:29:54;;;;;;;10.13;7.28;;;;;;;22.37;69.28;99580.94;5153905;27;20034;-74
2022/08/14 05:32:24;;;;;;;10.73;6.47;;;;;;;22.18;70.29;99588.56;5154065;27;20127;-74
2022/08/14 05:34:58;;;;;;;10.10;6.88;;;;;;;22.24;69.82;99596.00;5153772;27;20574;-74
2022/08/14 05:37:29;;;;;;;9.90;6.50;;;;;;;22.65;68.35;99595.59;5153900;27;20501;-75
2022/08/14 05:39:59;;;;;;;8.40;6.68;;;;;;;23.17;65.90;99591.16;5153566;27;20138;-75
2022/08/14 05:42:28;;;;;;;10.13;5.80;;;;;;;24.07;61.81;99598.88;5152838;27;20162;-75
2022/08/14 05:45:03;;;;;;;10.10;7.22;;;;;;;24.31;59.84;99598.50;5153705;27;20428;-75
2022/08/14 05:47:33;;;;;;;9.77;6.78;;;;;;;24.76;57.53;99588.16;5153861;27;20467;-75
2022/08/14 05:50:13;;;;;;;8.35;6.05;;;;;;;24.74;58.18;99607.44;5154069;27;20038;-75
2022/08/14 05:52:47;;;;;;;8.90;6.50;;;;;;;25.20;56.88;99603.34;5153654;27;20051;-73
2022/08/14 05:55:15;;;;;;;9.70;6.10;;;;;;;25.83;54.11;99599.38;5154067;27;20050;-73
2022/08/14 05:57:54;;;;;;;12.52;6.32;;;;;;;26.28;53.02;99590.63;5153515;27;20034;-75
2022/08/14 06:00:29;;;;;;;8.75;6.07;;;;;;;26.69;51.50;99593.16;5157827;27;20043;-72
2022/08/14 06:03:08;;;;;;;9.60;6.00;;;;;;;26.69;50.90;99599.47;5156047;27;20057;-72
2022/08/14 06:05:38;;;;;;;8.73;5.88;;;;;;;26.98;49.40;99579.00;5157563;27;20081;-74
2022/08/14 06:08:15;;;;;;;7.25;5.68;;;;;;;26.61;50.91;99596.94;5168595;27;20059;-74
2022/08/14 06:11:04;;;;;;;8.98;5.60;;;;;;;27.78;47.43;99586.91;5158727;27;20501;-74
2022/08/14 06:13:35;;;;;;;8.82;5.55;;;;;;;27.98;48.00;99589.53;5158800;27;20035;-74
2022/08/14 06:16:14;;;;;;;7.80;5.65;;;;;;;28.34;46.51;99578.75;5157635;27;20078;-74
2022/08/14 06:18:47;;;;;;;7.97;5.82;;;;;;;28.35;45.77;99576.84;5156239;27;20448;-74
2022/08/14 06:21:21;;;;;;;6.75;5.50;;;;;;;28.11;46.33;99573.84;5156053;27;20439;-73
2022/08/14 06:23:50;;;;;;;7.30;5.47;;;;;;;28.43;45.33;99577.41;5156858;27;20035;-72
2022/08/14 06:26:18;;;;;;;7.00;5.60;;;;;;;28.28;45.67;99574.19;5157051;27;20049;-73
2022/08/14 06:28:49;;;;;;;7.28;5.45;;;;;;;28.63;45.07;99581.88;5157078;27;20042;-72
2022/08/14 06:31:19;;;;;;;8.27;5.43;;;;;;;28.27;45.76;99580.66;5157413;27;20486;-73
2022/08/14 06:33:48;;;;;;;7.78;5.57;;;;;;;28.51;45.94;99579.88;5155438;27;20050;-73
2022/08/14 06:36:38;;;;;;;7.65;5.45;;;;;;;28.99;44.00;99584.69;5157341;27;20042;-82
2022/08/14 06:39:07;;;;;;;6.70;5.18;;;;;;;28.90;44.46;99586.06;5156595;27;20502;-84
2022/08/14 06:41:38;;;;;;;9.10;5.20;;;;;;;28.64;44.65;99580.78;5157645;27;20118;-83
2022/08/14 06:44:27;;;;;;;7.85;5.50;;;;;;;29.17;43.91;99585.78;5162587;27;20395;-78
2022/08/14 06:47:01;;;;;;;7.25;5.63;;;;;;;28.96;44.68;99585.16;5157039;27;20043;-80
2022/08/14 06:49:31;;;;;;;8.50;6.05;;;;;;;29.11;44.29;99578.44;5157467;27;20046;-80
2022/08/14 06:52:13;;;;;;;8.10;5.40;;;;;;;30.06;41.70;99568.50;5157071;27;20042;-77
2022/08/14 06:54:43;;;;;;;;;;;;;;;29.85;41.99;99566.28;5157345;27;20091;-76
2022/08/14 06:57:11;;;;;;;9.15;6.03;;;;;;;29.90;42.83;99563.66;5157220;27;19968;-75
2022/08/14 06:59:41;;;;;;;7.22;5.50;;;;;;;29.11;44.78;99562.78;5156617;27;20093;-76
2022/08/14 07:07:50;;;;;;;9.88;5.65;;;;;;;27.54;47.82;99556.47;5136060;27;20039;-77
2022/08/14 07:10:20;;;;;;;8.05;5.80;;;;;;;27.42;48.66;99551.91;5134745;27;20046;-81
2022/08/14 07:12:52;;;;;;;9.18;5.93;;;;;;;27.15;48.93;99551.19;5134439;27;20511;-81
2022/08/14 07:15:32;;;;;;;7.75;5.95;;;;;;;27.05;50.69;99554.38;5135604;27;20073;-76
2022/08/14 07:18:07;;;;;;;7.97;5.70;;;;;;;26.79;50.57;99556.09;5135234;27;20039;-77
2022/08/14 07:20:37;;;;;;;9.35;5.90;;;;;;;26.80;51.12;99548.72;5135571;27;20130;-77
2022/08/14 07:23:09;;;;;;;8.63;6.07;;;;;;;26.46;51.53;99561.63;5135426;27;20122;-78
2022/08/14 07:25:49;;;;;;;8.52;6.18;;;;;;;26.20;52.80;99556.13;5135400;27;20494;-78
2022/08/14 07:28:22;;;;;;;9.48;6.35;;;;;;;26.13;53.10;99556.13;5135603;27;20067;-77
2022/08/14 07:30:51;;;;;;;8.73;6.30;;;;;;;25.96;54.41;99560.31;5134967;27;20047;-77
2022/08/14 07:33:21;;;;;;;8.93;6.43;;;;;;;25.89;54.89;99554.84;5135377;27;20236;-77
2022/08/14 07:35:58;;;;;;;8.20;6.10;;;;;;;26.15;55.12;99554.03;5134942;27;20043;-76
2022/08/14 07:38:29;;;;;;;11.88;6.88;;;;;;;25.88;54.86;99552.34;5135368;27;20167;-76
2022/08/14 07:41:05;;;;;;;8.80;6.82;;;;;;;26.09;54.91;99557.59;5133432;27;20523;-77
2022/08/14 07:43:43;;;;;;;8.02;6.25;;;;;;;25.91;55.12;99560.94;5135118;27;20042;-76
2022/08/14 07:46:24;;;;;;;9.70;6.40;;;;;;;25.88;54.48;99552.34;5135049;27;20039;-77
2022/08/14 07:48:57;;;;;;;8.98;6.38;;;;;;;25.96;54.07;99552.97;5134899;27;20468;-73
2022/08/14 07:51:26;;;;;;;8.68;6.20;;;;;;;25.88;55.46;99571.47;5134741;27;20051;-75
2022/08/14 07:54:07;;;;;;;9.38;6.35;;;;;;;26.16;54.06;99561.19;5133509;27;20051;-75
2022/08/14 07:56:39;;;;;;;8.80;6.53;;;;;;;26.04;54.88;99562.00;5134968;27;20047;-75
2022/08/14 07:59:16;;;;;;;10.65;6.95;;;;;;;25.96;54.11;99557.56;5133354;27;20050;-75
2022/08/14 08:01:47;;;;;;;7.85;6.38;;;;;;;26.16;54.11;99554.88;5134293;27;20121;-75
2022/08/14 08:04:24;;;;;;;9.90;6.50;;;;;;;26.27;53.93;99553.41;5134380;27;20079;-75
2022/08/14 08:06:54;;;;;;;9.60;6.57;;;;;;;26.30;53.91;99553.81;5134401;27;20403;-75
2022/08/14 08:09:26;;;;;;;8.90;6.35;;;;;;;26.55;53.67;99542.28;5134428;27;20039;-74
2022/08/14 08:12:01;;;;;;;8.55;6.32;;;;;;;26.36;53.86;99544.78;5134139;27;20453;-73
2022/08/14 08:14:33;;;;;;;10.50;6.57;;;;;;;26.63;52.74;99544.75;5134686;27;20039;-73
2022/08/14 08:17:23;;;;;;;7.85;6.35;;;;;;;26.40;53.06;99550.69;5134629;27;20400;-75
2022/08/14 08:19:52;;;;;;;9.88;6.88;;;;;;;26.26;53.28;99544.38;5133058;27;20054;-75
2022/08/14 08:22:22;;;;;;;12.52;7.00;;;;;;;26.36;54.34;99547.53;5133543;27;20043;-76
2022/08/14 08:24:55;;;;;;;9.40;6.78;;;;;;;26.53;53.23;99546.03;5134560;27;20365;-83
2022/08/14 08:27:24;;;;;;;9.13;6.45;;;;;;;26.68;53.22;99547.72;5134609;27;20039;-83
2022/08/14 08:30:06;;;;;;;9.68;7.15;;;;;;;26.71;53.54;99541.81;5132708;27;20506;-72
2022/08/14 08:32:40;;;;;;;8.98;7.13;;;;;;;26.87;52.26;99540.50;5131595;27;20407;-72
2022/08/14 08:35:19;;;;;;;11.23;6.93;;;;;;;26.91;53.30;99541.75;5133524;27;20096;-73
2022/08/14 08:37:48;;;;;;;8.80;6.10;;;;;;;26.93;52.72;99537.75;5133756;27;20043;-72
2022/08/14 08:40:34;;;;;;;9.18;6.47;;;;;;;27.01;52.98;99537.50;5133740;27;20329;-73
2022/08/14 08:43:19;;;;;;;10.35;6.65;;;;;;;26.95;52.35;99538.38;5133604;27;20047;-73
2022/08/14 08:45:55;;;;;;;9.45;6.95;;;;;;;27.12;51.42;99538.78;5133579;27;20045;-75
2022/08/14 08:48:28;;;;;;;9.82;6.72;;;;;;;27.31;50.62;99532.38;5133805;27;20040;-74
2022/08/14 08:51:04;;;;;;;11.10;6.78;;;;;;;27.44;49.43;99531.47;5133538;27;20070;-74
2022/08/14 08:53:34;;;;;;;8.60;6.80;;;;;;;27.47;49.25;99530.16;5133298;27;20043;-73
2022/08/14 08:56:04;;;;;;;9.75;6.70;;;;;;;27.43;49.13;99524.31;5132721;27;20460;-78
2022/08/14 08:58:32;;;;;;;8.95;6.55;;;;;;;27.48;48.96;99529.13;5151950;27;20047;-75
2022/08/14 09:01:00;;;;;;;8.55;6.32;;;;;;;27.45;47.62;99519.44;5137327;27;20197;-75
2022/08/14 09:03:31;;;;;;;8.13;6.45;;;;;;;27.39;48.63;99523.88;5133649;27;20421;-73
2022/08/14 09:06:02;;;;;;;8.35;6.68;;;;;;;27.13;49.22;99513.09;5131557;27;20130;-74
2022/08/14 09:08:50;;;;;;;9.52;6.80;;;;;;;27.11;49.71;99515.19;5133443;27;20051;-73
2022/08/14 09:11:22;;;;;;;11.18;7.22;;;;;;;27.34;49.80;99512.75;5131757;27;20050;-73
2022/08/14 09:13:52;;;;;;;9.57;6.40;;;;;;;27.25;48.84;99511.34;5133096;27;20035;-75
2022/08/14 09:16:22;;;;;;;8.45;6.65;;;;;;;27.19;49.76;99509.47;5133335;27;20039;-75
2022/08/14 09:18:52;;;;;;;10.63;6.78;;;;;;;27.26;48.84;99506.69;5133068;27;20058;-75
2022/08/14 09:21:22;;;;;;;9.70;6.72;;;;;;;27.50;48.77;99503.19;5133218;27;20067;-74
2022/08/14 09:23:59;;;;;;;9.00;6.90;;;;;;;27.35;48.43;99511.69;5133199;27;20063;-75
2022/08/14 09:26:49;;;;;;;9.85;6.85;;;;;;;27.50;48.31;99502.34;5131781;27;20385;-75
2022/08/14 09:29:18;;;;;;;9.00;6.57;;;;;;;27.69;47.74;99495.09;5133254;27;20143;-74
2022/08/14 09:31:53;;;;;;;10.98;6.57;;;;;;;27.87;47.03;99503.38;5133316;27;20120;-75
2022/08/14 09:34:46;;;;;;;10.35;6.97;;;;;;;27.85;47.37;99500.88;5130754;27;20051;-75
2022/08/14 09:37:34;;;;;;;9.73;7.07;;;;;;;27.95;46.87;99495.72;5132952;28;20544;-75
2022/08/14 09:40:08;;;;;;;10.50;6.32;;;;;;;27.99;46.85;99498.88;5133227;27;20126;-75
2022/08/14 09:42:57;;;;;;;9.82;6.40;;;;;;;28.14;45.17;99498.53;5131257;28;20122;-75
2022/08/14 09:45:34;;;;;;;9.30;7.20;;;;;;;28.19;45.35;99495.97;5131724;27;20048;-75
2022/08/14 09:48:21;;;;;;;9.82;6.82;;;;;;;28.28;45.34;99489.16;5132857;28;20039;-75
2022/08/14 09:50:59;;;;;;;9.32;6.40;;;;;;;28.38;45.39;99491.41;5133131;27;20376;-74
2022/08/14 09:53:41;;;;;;;9.02;6.30;;;;;;;28.34;44.75;99488.25;5131322;28;20142;-74
2022/08/14 09:56:29;;;;;;;10.38;7.25;;;;;;;28.54;44.85;99481.72;5131255;27;20515;-74
2022/08/14 09:59:13;;;;;;;10.20;6.65;;;;;;;28.59;43.85;99473.66;5131491;27;20047;-73
2022/08/14 10:01:43;;;;;;;9.70;7.07;;;;;;;28.63;44.00;99483.09;5131190;28;20047;-80
2022/08/14 10:04:23;;;;;;;11.07;6.95;;;;;;;28.56;43.41;99474.09;5132888;27;20499;-81
2022/08/14 10:07:06;;;;;;;9.45;6.60;;;;;;;28.61;43.44;99482.50;5133098;27;20053;-75
2022/08/14 10:09:47;;;;;;;10.23;7.00;;;;;;;28.66;43.56;99477.13;5130094;27;20039;-78
2022/08/14 10:12:44;;;;;;;11.40;6.35;;;;;;;28.77;41.95;99474.50;5111999;28;20393;-76
2022/08/14 10:15:19;;;;;;;9.38;6.13;;;;;;;28.90;41.01;99484.50;5112443;28;20040;-72
2022/08/14 10:17:49;;;;;;;8.15;5.70;;;;;;;28.88;38.76;99481.13;5112283;28;20104;-72
2022/08/14 10:20:32;;;;;;;7.72;5.60;;;;;;;28.92;39.25;99484.25;5112408;28;20082;-72
2022/08/14 10:23:11;;;;;;;8.43;5.68;;;;;;;28.88;37.95;99481.13;5111891;28;20434;-75
2022/08/14 10:25:49;;;;;;;8.98;5.80;;;;;;;28.98;38.14;99484.19;5111938;28;20120;-73
2022/08/14 10:28:19;;;;;;;8.13;5.50;;;;;;;29.16;37.10;99488.00;5111970;28;20036;-76
2022/08/14 10:31:19;;;;;;;8.93;5.82;;;;;;;29.26;37.90;99480.03;5111767;28;20043;-76
2022/08/14 10:34:02;;;;;;;8.98;5.90;;;;;;;29.40;38.38;99477.94;5112101;28;20039;-82
2022/08/14 10:36:42;;;;;;;8.27;5.68;;;;;;;29.36;37.16;99470.16;5110434;28;20052;-72
2022/08/14 10:39:17;;;;;;;7.15;5.78;;;;;;;29.26;36.73;99464.41;5110508;28;20075;-77
2022/08/14 10:41:46;;;;;;;6.82;5.55;;;;;;;29.06;37.30;99464.66;5114128;28;20464;-73
2022/08/14 10:44:24;;;;;;;7.95;5.47;;;;;;;29.28;37.13;99469.66;5111091;28;20056;-75
2022/08/14 10:47:01;;;;;;;8.82;5.85;;;;;;;29.42;37.00;99468.38;5115137;28;20048;-75
2022/08/14 10:49:57;;;;;;;9.13;6.13;;;;;;;29.51;37.11;99472.50;5115260;28;20039;-76
2022/08/14 10:52:30;;;;;;;9.57;6.20;;;;;;;29.57;36.95;99468.00;5114918;28;20084;-74
2022/08/14 10:55:12;;;;;;;8.55;5.97;;;;;;;29.41;36.80;99461.22;5115587;28;20143;-75
2022/08/14 10:57:50;;;;;;;10.95;6.00;;;;;;;29.66;36.47;99468.50;5115132;28;20502;-75
2022/08/14 11:00:26;;;;;;;9.18;6.15;;;;;;;29.74;35.93;99470.91;5115018;28;20054;-77
2022/08/14 11:03:08;;;;;;;8.55;6.03;;;;;;;29.89;36.34;99463.03;5114980;28;20104;-73
2022/08/14 11:05:42;;;;;;;7.30;5.90;;;;;;;29.81;36.58;99460.63;5126093;27;20047;-76
2022/08/14 11:08:13;;;;;;;10.13;5.97;;;;;;;29.69;36.08;99452.34;5135452;27;20039;-77
2022/08/14 11:10:45;;;;;;;8.17;5.60;;;;;;;29.38;37.17;99449.84;5135967;27;20476;-72
2022/08/14 11:13:23;;;;;;;7.60;5.72;;;;;;;29.53;37.06;99447.53;5133587;27;20134;-74
2022/08/14 11:15:52;;;;;;;7.53;5.93;;;;;;;29.60;36.66;99438.13;5135507;27;20040;-76
2022/08/14 11:18:22;;;;;;;8.32;6.07;;;;;;;29.59;36.01;99433.69;5135603;27;20054;-77
2022/08/14 11:21:05;;;;;;;6.60;5.20;;;;;;;29.69;35.99;99427.63;5133520;27;20407;-73
2022/08/14 11:23:37;;;;;;;8.30;5.90;;;;;;;29.75;35.90;99423.94;5135344;27;20118;-75
2022/08/14 11:26:12;;;;;;;8.25;5.82;;;;;;;30.02;34.80;99418.81;5134869;27;20059;-74
2022/08/14 11:28:45;;;;;;;8.25;5.65;;;;;;;30.03;34.58;99425.16;5133882;27;20054;-74
2022/08/14 11:31:20;;;;;;;7.80;6.03;;;;;;;29.74;35.42;99426.94;5134920;27;20043;-74
2022/08/14 11:33:56;;;;;;;7.95;5.72;;;;;;;29.94;34.94;99427.44;5135205;27;20409;-75
2022/08/14 11:36:28;;;;;;;8.27;6.05;;;;;;;29.96;35.17;99419.78;5133681;27;20383;-75
2022/08/14 11:39:20;;;;;;;8.05;5.97;;;;;;;30.08;34.60;99412.38;5134906;27;20043;-74
2022/08/14 11:42:03;;;;;;;7.72;5.60;;;;;;;29.88;35.19;99417.38;5133432;27;20080;-74
2022/08/14 11:44:52;;;;;;;7.43;5.53;;;;;;;30.08;34.51;99411.56;5135166;27;20046;-75
2022/08/14 11:47:27;;;;;;;6.80;5.35;;;;;;;30.11;34.09;99411.06;5145320;27;20047;-75
2022/08/14 11:50:15;;;;;;;7.03;5.68;;;;;;;29.76;34.21;99400.03;5136027;27;20039;-74
2022/08/14 11:53:03;;;;;;;7.35;4.85;;;;;;;29.89;33.84;99399.81;5134814;27;20043;-75
2022/08/14 11:55:35;;;;;;;7.68;5.18;;;;;;;30.28;33.09;99394.69;5134477;27;20452;-74
2022/08/14 11:58:08;;;;;;;7.85;5.03;;;;;;;30.40;31.45;99401.00;5134654;27;20043;-75
2022/08/14 12:00:46;;;;;;;5.95;4.45;;;;;;;30.51;31.06;99394.66;5134507;27;20048;-75
2022/08/14 12:03:15;;;;;;;7.53;4.97;;;;;;;30.55;31.48;99393.06;5133031;27;20144;-75
2022/08/14 12:05:51;;;;;;;6.95;4.82;;;;;;;30.34;31.33;99382.72;5134676;27;20106;-74
2022/08/14 12:08:19;;;;;;;6.05;4.32;;;;;;;30.39;29.64;99388.31;5133213;27;20054;-74
2022/08/14 12:10:57;;;;;;;5.75;4.05;;;;;;;30.40;28.66;99388.09;5134623;27;20463;-74
2022/08/14 12:13:31;;;;;;;6.97;4.05;;;;;;;30.35;27.51;99385.22;5134859;27;20103;-73
2022/08/14 12:16:06;;;;;;;6.03;3.65;;;;;;;30.05;27.27;99377.09;5132663;27;20085;-73
2022/08/14 12:18:49;;;;;;;5.38;3.80;;;;;;;30.11;27.37;99383.56;5133194;27;20093;-73
2022/08/14 12:21:22;;;;;;;6.10;3.85;;;;;;;30.25;28.69;99373.16;5133934;27;20069;-73
2022/08/14 12:24:02;;;;;;;6.80;4.43;;;;;;;30.10;29.01;99377.22;5134467;27;20118;-73
2022/08/14 12:26:30;;;;;;;5.80;4.20;;;;;;;30.12;29.16;99374.25;5134504;27;20043;-73